createdAt,value
2023-05-01T00:00:50.166Z,2.40
2023-05-01T00:03:29.180Z,1.73
2023-05-01T00:06:08.285Z,2.13
2023-05-01T00:08:36.032Z,1.60
2023-05-01T00:11:12.876Z,2.63
2023-05-01T00:13:50.587Z,2.20
2023-05-01T00:16:23.261Z,2.60
2023-05-01T00:18:57.425Z,2.97
2023-05-01T00:21:30.462Z,2.10
2023-05-01T00:24:00.050Z,1.70
2023-05-01T00:26:34.594Z,2.33
2023-05-01T00:29:16.205Z,2.07
2023-05-01T00:31:53.986Z,2.55
2023-05-01T00:34:29.075Z,2.43
2023-05-01T00:37:02.978Z,2.13
2023-05-01T00:39:44.689Z,1.57
2023-05-01T00:42:15.039Z,2.00
2023-05-01T00:44:46.604Z,1.70
2023-05-01T00:47:17.249Z,2.38
2023-05-01T00:50:00.274Z,2.00
2023-05-01T00:52:45.986Z,1.93
2023-05-01T00:55:17.703Z,2.07
2023-05-01T00:57:46.923Z,2.33
2023-05-01T01:00:19.339Z,2.40
2023-05-01T01:03:01.825Z,1.90
2023-05-01T01:05:44.917Z,1.83
2023-05-01T01:08:44.111Z,1.90
2023-05-01T01:11:28.034Z,2.03
2023-05-01T01:14:21.236Z,2.20
2023-05-01T01:17:02.904Z,1.73
2023-05-01T01:20:51.896Z,2.00
2023-05-01T01:23:50.886Z,1.53
2023-05-01T01:26:34.728Z,0.93
2023-05-01T01:29:45.206Z,1.43
2023-05-01T01:33:04.815Z,1.87
2023-05-01T01:35:46.540Z,1.67
2023-05-01T01:38:41.813Z,2.03
2023-05-01T01:41:29.996Z,2.03
2023-05-01T01:44:33.461Z,1.40
2023-05-01T01:47:11.914Z,2.27
2023-05-01T01:49:49.589Z,2.03
2023-05-01T01:52:22.324Z,2.20
2023-05-01T01:55:01.577Z,2.23
2023-05-01T02:00:21.608Z,2.07
2023-05-01T02:02:55.815Z,1.27
2023-05-01T02:05:28.084Z,1.70
2023-05-01T02:07:59.769Z,1.40
2023-05-01T02:10:30.933Z,1.20
2023-05-01T02:13:02.742Z,1.40
2023-05-01T02:15:36.238Z,1.57
2023-05-01T02:18:27.690Z,2.13
2023-05-01T02:21:05.486Z,1.90
2023-05-01T02:23:39.852Z,2.33
2023-05-01T02:26:12.830Z,2.33
2023-05-01T02:28:49.228Z,1.80
2023-05-01T02:31:19.052Z,2.27
2023-05-01T02:33:54.730Z,2.13
2023-05-01T02:36:24.178Z,2.20
2023-05-01T02:39:00.307Z,1.90
2023-05-01T02:41:47.177Z,1.43
2023-05-01T02:44:23.338Z,2.23
2023-05-01T02:47:14.101Z,2.07
2023-05-01T02:49:56.580Z,1.80
2023-05-01T02:52:41.509Z,1.80
2023-05-01T02:55:28.184Z,1.83
2023-05-01T02:58:03.655Z,1.90
2023-05-01T03:00:38.825Z,1.80
2023-05-01T03:03:16.243Z,2.97
2023-05-01T03:05:51.210Z,1.80
2023-05-01T03:08:23.244Z,2.60
2023-05-01T03:10:54.396Z,1.83
2023-05-01T03:13:31.048Z,2.17
2023-05-01T03:16:04.485Z,1.50
2023-05-01T03:18:32.772Z,1.40
2023-05-01T03:21:00.953Z,1.60
2023-05-01T03:23:29.094Z,1.80
2023-05-01T03:26:04.794Z,1.07
2023-05-01T03:28:35.346Z,2.10
2023-05-01T03:31:10.368Z,1.90
2023-05-01T03:33:41.093Z,1.20
2023-05-01T03:36:24.749Z,1.50
2023-05-01T03:39:07.399Z,1.67
2023-05-01T03:42:03.257Z,1.70
2023-05-01T03:44:46.460Z,1.53
2023-05-01T03:47:20.469Z,0.93
2023-05-01T03:49:50.950Z,1.90
2023-05-01T03:52:21.292Z,1.93
2023-05-01T03:54:51.436Z,1.53
2023-05-01T03:57:30.475Z,1.63
2023-05-01T04:02:51.829Z,1.57
2023-05-01T04:05:25.126Z,1.93
2023-05-01T04:08:08.012Z,2.80
2023-05-01T04:10:38.639Z,1.03
2023-05-01T04:13:15.467Z,1.60
2023-05-01T04:15:47.555Z,1.60
2023-05-01T04:18:18.748Z,1.70
2023-05-01T04:20:49.102Z,1.97
2023-05-01T04:23:22.134Z,2.07
2023-05-01T04:25:54.654Z,1.70
2023-05-01T04:28:31.405Z,1.60
2023-05-01T04:31:07.053Z,1.80
2023-05-01T04:33:37.660Z,1.57
2023-05-01T04:36:12.441Z,2.10
2023-05-01T04:38:43.749Z,1.80
2023-05-01T04:41:16.715Z,1.80
2023-05-01T04:43:49.490Z,2.50
2023-05-01T04:46:22.225Z,2.80
2023-05-01T04:48:54.399Z,2.23
2023-05-01T04:51:25.896Z,2.10
2023-05-01T04:53:56.668Z,2.20
2023-05-01T04:56:28.214Z,2.23
2023-05-01T04:59:01.477Z,2.23
2023-05-01T05:01:40.595Z,2.27
2023-05-01T05:04:12.012Z,2.10
2023-05-01T05:06:43.246Z,2.33
2023-05-01T05:09:20.154Z,3.10
2023-05-01T05:11:52.071Z,2.13
2023-05-01T05:14:23.141Z,2.13
2023-05-01T05:17:10.756Z,2.90
2023-05-01T05:19:44.504Z,2.47
2023-05-01T05:22:20.592Z,3.10
2023-05-01T05:25:21.163Z,3.03
2023-05-01T05:27:51.286Z,2.43
2023-05-01T05:30:23.026Z,2.70
2023-05-01T05:32:55.232Z,2.30
2023-05-01T05:35:31.682Z,2.15
2023-05-01T05:38:13.624Z,2.80
2023-05-01T05:40:47.321Z,2.27
2023-05-01T05:43:19.134Z,2.45
2023-05-01T05:48:36.976Z,2.47
2023-05-01T05:51:32.944Z,2.90
2023-05-01T05:54:04.044Z,2.27
2023-05-01T05:56:37.194Z,3.33
2023-05-01T05:59:11.632Z,2.30
2023-05-01T06:01:42.813Z,2.67
2023-05-01T06:04:18.696Z,2.47
2023-05-01T06:06:56.269Z,2.38
2023-05-01T06:09:28.657Z,2.73
2023-05-01T06:12:06.395Z,2.67
2023-05-01T06:14:38.653Z,2.40
2023-05-01T06:17:21.718Z,2.38
2023-05-01T06:19:56.118Z,2.53
2023-05-01T06:22:25.267Z,3.30
2023-05-01T06:25:04.665Z,2.37
2023-05-01T06:27:34.641Z,2.27
2023-05-01T06:30:02.855Z,3.47
2023-05-01T06:32:34.389Z,2.63
2023-05-01T06:35:13.324Z,2.57
2023-05-01T06:37:41.361Z,2.10
2023-05-01T06:40:14.543Z,2.83
2023-05-01T06:42:46.545Z,2.30
2023-05-01T06:45:16.699Z,2.60
2023-05-01T06:47:56.764Z,2.27
2023-05-01T06:50:31.380Z,3.10
2023-05-01T06:53:03.566Z,2.60
2023-05-01T06:55:35.832Z,3.30
2023-05-01T06:58:12.697Z,3.13
2023-05-01T07:00:53.942Z,2.63
2023-05-01T07:03:30.130Z,3.13
2023-05-01T07:05:59.463Z,3.23
2023-05-01T07:08:28.849Z,2.93
2023-05-01T07:11:00.935Z,2.67
2023-05-01T07:13:37.740Z,2.97
2023-05-01T07:16:08.832Z,2.90
2023-05-01T07:18:38.079Z,3.10
2023-05-01T07:21:18.264Z,2.77
2023-05-01T07:23:52.318Z,2.00
2023-05-01T07:26:28.758Z,2.60
2023-05-01T07:29:03.771Z,2.60
2023-05-01T07:31:35.006Z,2.87
2023-05-01T07:34:14.967Z,2.80
2023-05-01T07:36:57.324Z,2.88
2023-05-01T07:39:41.056Z,2.33
2023-05-01T07:42:18.639Z,3.60
2023-05-01T07:44:53.904Z,2.87
2023-05-01T07:47:24.416Z,2.33
2023-05-01T07:49:55.846Z,2.17
2023-05-01T07:52:27.977Z,2.17
2023-05-01T07:55:00.737Z,2.23
2023-05-01T07:57:34.735Z,2.07
2023-05-01T08:00:03.097Z,1.70
2023-05-01T08:02:42.228Z,1.63
2023-05-01T08:05:16.698Z,1.83
2023-05-01T08:07:48.565Z,2.23
2023-05-01T08:13:03.272Z,1.80
2023-05-01T08:15:33.812Z,1.40
2023-05-01T08:18:04.413Z,2.23
2023-05-01T08:20:32.816Z,1.93
2023-05-01T08:23:08.957Z,2.40
2023-05-01T08:25:52.157Z,1.67
2023-05-01T08:28:33.792Z,1.87
2023-05-01T08:31:05.588Z,2.00
2023-05-01T08:36:21.241Z,2.20
2023-05-01T08:38:58.645Z,2.13
2023-05-01T08:41:30.525Z,1.80
2023-05-01T08:47:15.095Z,2.33
2023-05-01T08:49:45.614Z,1.80
2023-05-01T08:52:19.285Z,2.03
2023-05-01T08:54:50.125Z,1.60
2023-05-01T08:57:27.060Z,1.55
2023-05-01T09:03:04.149Z,1.58
2023-05-01T09:05:41.634Z,0.90
2023-05-01T09:08:12.168Z,1.03
2023-05-01T09:10:53.250Z,0.90
2023-05-01T09:13:23.299Z,1.00
2023-05-01T09:16:02.514Z,1.10
2023-05-01T09:18:31.803Z,0.67
2023-05-01T09:21:02.413Z,0.70
2023-05-01T09:23:40.904Z,1.10
2023-05-01T09:26:09.993Z,1.00
2023-05-01T09:28:52.090Z,1.20
2023-05-01T09:31:28.730Z,0.70
2023-05-01T09:34:05.110Z,1.00
2023-05-01T09:36:40.378Z,0.87
2023-05-01T09:39:17.971Z,0.80
2023-05-01T09:41:56.621Z,1.40
2023-05-01T09:44:39.321Z,0.60
2023-05-01T09:47:11.291Z,0.93
2023-05-01T09:50:03.810Z,1.00
2023-05-01T09:52:34.290Z,1.20
2023-05-01T09:55:23.556Z,1.20
2023-05-01T09:57:58.949Z,0.77
2023-05-01T10:00:30.292Z,1.20
2023-05-01T10:03:02.434Z,0.82
2023-05-01T10:05:46.222Z,0.82
2023-05-01T10:08:16.678Z,0.88
2023-05-01T10:10:47.227Z,0.85
2023-05-01T10:13:26.818Z,1.08
2023-05-01T10:15:58.077Z,0.85
2023-05-01T10:18:33.428Z,0.82
2023-05-01T10:21:14.053Z,0.90
2023-05-01T10:23:50.501Z,0.90
2023-05-01T10:26:21.657Z,1.27
2023-05-01T10:29:05.638Z,1.00
2023-05-01T10:31:36.192Z,0.93
2023-05-01T10:34:21.063Z,0.77
2023-05-01T10:37:07.222Z,1.02
2023-05-01T10:39:47.235Z,1.42
2023-05-01T10:42:20.967Z,0.82
2023-05-01T10:44:51.828Z,0.77
2023-05-01T10:47:32.165Z,0.90
2023-05-01T10:50:26.193Z,1.10
2023-05-01T10:53:14.184Z,0.70
2023-05-01T10:55:50.260Z,0.93
2023-05-01T10:58:41.238Z,0.60
2023-05-01T11:01:34.371Z,0.50
2023-05-01T11:04:27.153Z,1.10
2023-05-01T11:07:13.635Z,0.43
2023-05-01T11:10:02.520Z,0.85
2023-05-01T11:12:56.967Z,0.60
2023-05-01T11:15:39.540Z,1.10
2023-05-01T11:18:07.822Z,0.75
2023-05-01T11:20:51.227Z,0.73
2023-05-01T11:23:25.750Z,0.63
2023-05-01T11:26:13.297Z,0.63
2023-05-01T11:28:52.114Z,0.60
2023-05-01T11:31:23.513Z,0.20
2023-05-01T11:34:03.942Z,0.50
2023-05-01T11:36:57.017Z,0.90
2023-05-01T11:39:27.044Z,0.50
2023-05-01T11:42:15.448Z,0.77
2023-05-01T11:44:52.145Z,0.90
2023-05-01T11:47:41.521Z,0.47
2023-05-01T11:50:13.113Z,0.60
2023-05-01T11:52:55.987Z,0.40
2023-05-01T11:55:34.709Z,0.40
2023-05-01T11:58:04.999Z,0.50
2023-05-01T12:00:49.161Z,0.43
2023-05-01T12:03:25.888Z,0.95
2023-05-01T12:05:57.789Z,0.73
2023-05-01T12:08:33.731Z,0.85
2023-05-01T12:11:03.983Z,0.52
2023-05-01T12:13:32.493Z,0.60
2023-05-01T12:16:01.879Z,0.65
2023-05-01T12:18:33.380Z,0.70
2023-05-01T12:23:44.609Z,0.60
2023-05-01T12:26:26.811Z,0.70
2023-05-01T12:29:04.716Z,0.65
2023-05-01T12:31:39.541Z,0.68
2023-05-01T12:34:20.498Z,0.47
2023-05-01T12:36:59.982Z,0.80
2023-05-01T12:39:43.407Z,0.60
2023-05-01T12:42:22.682Z,0.95
2023-05-01T12:45:02.806Z,0.45
2023-05-01T12:47:56.704Z,0.85
2023-05-01T12:50:29.231Z,0.60
2023-05-01T12:52:59.503Z,0.85
2023-05-01T12:55:30.715Z,0.90
2023-05-01T12:58:04.045Z,0.82
2023-05-01T13:00:51.893Z,0.90
2023-05-01T13:03:33.905Z,1.20
2023-05-01T13:06:05.890Z,0.77
2023-05-01T13:08:41.539Z,0.50
2023-05-01T13:11:19.453Z,0.70
2023-05-01T13:13:50.689Z,0.75
2023-05-01T13:16:21.311Z,1.08
2023-05-01T13:19:01.594Z,1.17
2023-05-01T13:21:29.367Z,1.20
2023-05-01T13:24:12.503Z,1.17
2023-05-01T13:26:45.393Z,0.90
2023-05-01T13:29:17.375Z,1.10
2023-05-01T13:31:49.546Z,1.00
2023-05-01T13:34:31.286Z,0.85
2023-05-01T13:37:04.271Z,0.82
2023-05-01T13:39:48.268Z,1.10
2023-05-01T13:42:27.486Z,0.93
2023-05-01T13:45:08.953Z,0.95
2023-05-01T13:50:24.320Z,1.08
2023-05-01T13:52:55.093Z,0.70
2023-05-01T13:55:33.091Z,0.40
2023-05-01T13:58:12.366Z,0.95
2023-05-01T14:00:44.081Z,1.00
2023-05-01T14:06:12.123Z,0.80
2023-05-01T14:08:46.589Z,0.95
2023-05-01T14:11:18.128Z,0.70
2023-05-01T14:13:49.875Z,0.93
2023-05-01T14:16:33.396Z,0.93
2023-05-01T14:19:03.484Z,0.88
2023-05-01T14:21:51.942Z,1.00
2023-05-01T14:24:23.223Z,0.52
2023-05-01T14:26:54.325Z,1.13
2023-05-01T14:29:30.661Z,1.08
2023-05-01T14:32:04.379Z,1.08
2023-05-01T14:34:34.874Z,0.83
2023-05-01T14:37:04.744Z,0.80
2023-05-01T14:39:39.761Z,1.07
2023-05-01T14:42:10.937Z,0.73
2023-05-01T14:44:50.821Z,0.82
2023-05-01T14:47:30.468Z,1.13
2023-05-01T14:50:13.445Z,1.10
2023-05-01T14:52:43.886Z,1.20
2023-05-01T14:55:17.801Z,1.15
2023-05-01T14:57:55.489Z,1.20
2023-05-01T15:00:28.973Z,0.95
2023-05-01T15:03:13.371Z,0.90
2023-05-01T15:05:44.634Z,0.70
2023-05-01T15:08:15.853Z,0.80
2023-05-01T15:10:47.969Z,0.90
2023-05-01T15:13:24.150Z,0.90
2023-05-01T15:15:57.874Z,0.80
2023-05-01T15:18:30.639Z,0.70
2023-05-01T15:21:01.568Z,0.60
2023-05-01T15:23:39.397Z,0.98
2023-05-01T15:26:09.492Z,0.60
2023-05-01T15:28:42.864Z,1.00
2023-05-01T15:31:16.413Z,0.80
2023-05-01T15:33:47.883Z,0.80
2023-05-01T15:36:17.888Z,0.65
2023-05-01T15:38:53.066Z,0.88
2023-05-01T15:41:21.426Z,0.90
2023-05-01T15:44:00.564Z,0.60
2023-05-01T15:46:39.112Z,0.75
2023-05-01T15:49:13.220Z,1.30
2023-05-01T15:51:45.191Z,0.90
2023-05-01T15:54:23.660Z,1.05
2023-05-01T15:56:54.624Z,0.90
2023-05-01T15:59:28.410Z,1.17
2023-05-01T16:02:00.068Z,0.93
2023-05-01T16:04:32.384Z,0.90
2023-05-01T16:07:21.444Z,0.90
2023-05-01T16:09:52.505Z,0.67
2023-05-01T16:12:31.485Z,0.88
2023-05-01T16:15:02.174Z,0.60
2023-05-01T16:17:36.388Z,1.20
2023-05-01T16:20:05.239Z,1.00
2023-05-01T16:22:36.855Z,0.43
2023-05-01T16:27:51.815Z,1.13
2023-05-01T16:30:31.738Z,1.40
2023-05-01T16:33:05.237Z,0.98
2023-05-01T16:35:39.400Z,1.00
2023-05-01T16:38:07.429Z,3.20
2023-05-01T16:40:42.664Z,1.80
2023-05-01T16:43:21.254Z,9.80
2023-05-01T16:45:55.171Z,10.77
2023-05-01T16:48:30.183Z,4.97
2023-05-01T16:51:03.262Z,2.72
2023-05-01T16:53:42.385Z,1.97
2023-05-01T16:56:22.565Z,1.60
2023-05-01T16:59:00.253Z,1.40
2023-05-01T17:01:28.635Z,2.87
2023-05-01T17:04:01.387Z,1.90
2023-05-01T17:06:30.365Z,2.50
2023-05-01T17:09:04.569Z,2.10
2023-05-01T17:11:32.356Z,1.60
2023-05-01T17:14:03.580Z,1.47
2023-05-01T17:16:33.431Z,1.23
2023-05-01T17:19:16.612Z,1.17
2023-05-01T17:21:55.680Z,1.33
2023-05-01T17:24:34.293Z,1.13
2023-05-01T17:30:04.947Z,2.97
2023-05-01T17:32:37.279Z,3.20
2023-05-01T17:35:10.472Z,4.77
2023-05-01T17:40:42.046Z,2.23
2023-05-01T17:43:16.806Z,2.77
2023-05-01T17:45:54.622Z,3.07
2023-05-01T17:48:24.927Z,2.70
2023-05-01T17:51:00.044Z,2.87
2023-05-01T17:59:24.352Z,1.77
2023-05-01T18:01:55.362Z,1.50
2023-05-01T18:04:33.257Z,1.33
2023-05-01T18:07:04.912Z,1.40
2023-05-01T18:12:04.937Z,1.45
2023-05-01T18:14:48.992Z,1.10
2023-05-01T18:17:19.941Z,0.87
2023-05-01T18:19:50.729Z,1.55
2023-05-01T18:25:01.415Z,1.55
2023-05-01T18:27:33.979Z,1.40
2023-05-01T18:30:20.178Z,1.60
2023-05-01T18:32:57.947Z,1.37
2023-05-01T18:35:27.778Z,1.27
2023-05-01T18:37:58.196Z,1.50
2023-05-01T18:40:36.034Z,1.60
2023-05-01T18:43:06.388Z,1.43
2023-05-01T18:45:34.411Z,1.20
2023-05-01T18:48:13.032Z,1.53
2023-05-01T18:51:07.101Z,1.13
2023-05-01T18:53:38.461Z,1.60
2023-05-01T18:56:13.494Z,1.85
2023-05-01T18:58:43.613Z,2.17
2023-05-01T19:01:21.395Z,2.38
2023-05-01T19:03:54.601Z,2.30
2023-05-01T19:09:23.840Z,1.43
2023-05-01T19:12:09.223Z,1.30
2023-05-01T19:14:39.862Z,1.50
2023-05-01T19:17:09.583Z,1.70
2023-05-01T19:19:40.321Z,1.43
2023-05-01T19:22:16.243Z,1.40
2023-05-01T19:24:56.576Z,1.20
2023-05-01T19:27:36.627Z,1.57
2023-05-01T19:30:04.973Z,1.37
2023-05-01T19:32:37.014Z,1.10
2023-05-01T19:35:17.598Z,1.70
2023-05-01T19:37:51.262Z,1.50
2023-05-01T19:40:33.021Z,1.83
2023-05-01T19:43:08.339Z,1.57
2023-05-01T19:45:40.198Z,1.93
2023-05-01T19:48:16.502Z,1.67
2023-05-01T19:51:01.935Z,1.67
2023-05-01T19:53:35.104Z,2.67
2023-05-01T19:56:07.436Z,1.93
2023-05-01T19:58:37.480Z,3.00
2023-05-01T20:01:09.415Z,2.00
2023-05-01T20:12:15.742Z,1.33
2023-05-01T20:14:47.305Z,1.60
2023-05-01T20:17:23.703Z,1.70
2023-05-01T20:19:58.025Z,1.47
2023-05-01T20:22:44.126Z,1.70
2023-05-01T20:25:18.588Z,1.90
2023-05-01T20:27:48.560Z,1.93
2023-05-01T20:30:18.819Z,1.60
2023-05-01T20:32:56.323Z,1.80
2023-05-01T20:35:30.703Z,1.40
2023-05-01T20:38:08.568Z,1.60
2023-05-01T20:40:43.066Z,1.50
2023-05-01T20:43:17.653Z,1.30
2023-05-01T20:45:54.339Z,1.93
2023-05-01T20:48:26.957Z,1.83
2023-05-01T20:51:06.122Z,1.60
2023-05-01T20:53:45.590Z,1.97
2023-05-01T20:56:17.488Z,1.83
2023-05-01T20:58:48.052Z,1.97
2023-05-01T21:01:18.902Z,1.60
2023-05-01T21:03:52.863Z,1.95
2023-05-01T21:09:11.550Z,2.03
2023-05-01T21:11:42.638Z,1.63
2023-05-01T21:14:21.685Z,2.15
2023-05-01T21:16:54.791Z,2.10
2023-05-01T21:19:37.876Z,1.37
2023-05-01T21:22:09.696Z,1.83
2023-05-01T21:27:32.063Z,1.53
2023-05-01T21:30:15.527Z,1.93
2023-05-01T21:32:51.245Z,2.17
2023-05-01T21:35:22.891Z,2.03
2023-05-01T21:37:51.554Z,1.98
2023-05-01T21:40:23.906Z,1.73
2023-05-01T21:43:00.414Z,1.57
2023-05-01T21:45:37.501Z,1.90
2023-05-01T21:48:25.614Z,1.70
2023-05-01T21:50:59.250Z,1.90
2023-05-01T21:53:31.562Z,1.77
2023-05-01T21:56:03.200Z,1.90
2023-05-01T21:58:41.059Z,1.40
2023-05-01T22:01:09.699Z,1.90
2023-05-01T22:03:42.203Z,1.83
2023-05-01T22:06:31.478Z,1.77
2023-05-01T22:09:02.158Z,2.30
2023-05-01T22:11:40.217Z,1.90
2023-05-01T22:14:18.792Z,1.80
2023-05-01T22:16:49.227Z,1.73
2023-05-01T22:19:22.895Z,1.70
2023-05-01T22:21:56.312Z,1.87
2023-05-01T22:24:29.336Z,1.67
2023-05-01T22:27:01.946Z,1.40
2023-05-01T22:29:47.205Z,1.60
2023-05-01T22:32:28.352Z,1.73
2023-05-01T22:35:00.899Z,1.40
2023-05-01T22:37:37.420Z,1.53
2023-05-01T22:40:05.827Z,2.63
2023-05-01T22:42:44.802Z,3.53
2023-05-01T22:45:16.283Z,3.33
2023-05-01T22:48:01.811Z,2.10
2023-05-01T22:50:38.114Z,2.17
2023-05-01T22:53:14.597Z,2.80
2023-05-01T22:55:44.882Z,2.47
2023-05-01T22:58:19.528Z,2.50
2023-05-01T23:00:56.656Z,2.60
2023-05-01T23:03:28.755Z,2.33
2023-05-01T23:05:59.867Z,2.80
2023-05-01T23:08:30.483Z,2.20
2023-05-01T23:11:03.517Z,2.47
2023-05-01T23:13:35.579Z,2.03
2023-05-01T23:18:48.451Z,2.25
2023-05-01T23:21:26.822Z,1.95
2023-05-01T23:23:58.127Z,2.10
2023-05-01T23:26:36.886Z,1.80
2023-05-01T23:29:07.417Z,1.90
2023-05-01T23:31:36.476Z,2.40
2023-05-01T23:34:04.876Z,2.30
2023-05-01T23:39:17.202Z,2.25
2023-05-01T23:41:47.807Z,2.13
2023-05-01T23:44:18.712Z,2.07
2023-05-01T23:46:52.108Z,2.20
2023-05-01T23:49:25.666Z,1.90
2023-05-01T23:52:00.949Z,2.00
2023-05-01T23:54:31.657Z,1.90
2023-05-01T23:57:06.451Z,1.80
2023-05-01T23:59:36.697Z,2.17
